createdAt,value
2023-03-10T00:00:51.473Z,0.00
2023-03-10T00:01:52.321Z,0.00
2023-03-10T00:02:53.175Z,0.00
2023-03-10T00:03:54.058Z,0.00
2023-03-10T00:04:54.954Z,0.00
2023-03-10T00:05:55.837Z,0.00
2023-03-10T00:06:56.671Z,0.00
2023-03-10T00:07:57.540Z,0.00
2023-03-10T00:08:58.363Z,0.00
2023-03-10T00:09:59.216Z,0.00
2023-03-10T00:11:00.110Z,0.00
2023-03-10T00:12:00.946Z,0.00
2023-03-10T00:13:01.809Z,0.00
2023-03-10T00:14:02.674Z,0.00
2023-03-10T00:15:03.562Z,0.00
2023-03-10T00:16:04.549Z,0.00
2023-03-10T00:17:05.363Z,0.00
2023-03-10T00:18:06.219Z,0.00
2023-03-10T00:19:07.110Z,0.00
2023-03-10T00:20:08.046Z,0.00
2023-03-10T00:21:08.899Z,0.00
2023-03-10T00:22:09.751Z,0.00
2023-03-10T00:23:10.625Z,0.00
2023-03-10T00:24:11.428Z,0.00
2023-03-10T00:25:12.280Z,0.00
2023-03-10T00:26:13.154Z,0.00
2023-03-10T00:27:14.009Z,0.00
2023-03-10T00:28:14.882Z,0.00
2023-03-10T00:29:15.742Z,0.00
2023-03-10T00:30:16.599Z,0.00
2023-03-10T00:31:17.552Z,0.00
2023-03-10T00:32:18.413Z,0.00
2023-03-10T00:33:19.231Z,0.00
2023-03-10T00:34:20.112Z,0.00
2023-03-10T00:35:20.942Z,0.00
2023-03-10T00:36:22.076Z,0.00
2023-03-10T00:37:22.433Z,0.00
2023-03-10T00:38:23.321Z,0.00
2023-03-10T00:39:24.122Z,0.00
2023-03-10T00:40:24.970Z,0.00
2023-03-10T00:41:25.844Z,0.00
2023-03-10T00:42:26.698Z,0.00
2023-03-10T00:43:27.549Z,0.00
2023-03-10T00:44:28.405Z,0.00
2023-03-10T00:45:29.255Z,0.00
2023-03-10T00:46:30.331Z,0.00
2023-03-10T00:47:30.694Z,0.00
2023-03-10T00:48:31.530Z,0.00
2023-03-10T00:49:32.405Z,0.00
2023-03-10T00:50:33.238Z,0.00
2023-03-10T00:51:34.111Z,0.00
2023-03-10T00:52:34.962Z,0.00
2023-03-10T00:53:35.836Z,0.00
2023-03-10T00:54:36.672Z,0.00
2023-03-10T00:55:37.526Z,0.00
2023-03-10T00:56:38.404Z,0.00
2023-03-10T00:57:39.269Z,0.00
2023-03-10T00:58:40.125Z,0.00
2023-03-10T00:59:50.052Z,0.00
2023-03-10T01:00:42.738Z,0.00
2023-03-10T01:01:43.194Z,0.00
2023-03-10T01:02:43.524Z,0.00
2023-03-10T01:03:44.383Z,0.00
2023-03-10T01:04:45.375Z,0.00
2023-03-10T01:05:46.211Z,0.00
2023-03-10T01:06:47.063Z,0.00
2023-03-10T01:07:47.921Z,0.00
2023-03-10T01:08:48.788Z,0.00
2023-03-10T01:09:49.607Z,0.00
2023-03-10T01:10:50.462Z,0.00
2023-03-10T01:11:51.591Z,0.00
2023-03-10T01:12:51.946Z,0.00
2023-03-10T01:13:52.823Z,0.00
2023-03-10T01:14:53.676Z,0.00
2023-03-10T01:15:54.568Z,0.00
2023-03-10T01:16:55.411Z,0.00
2023-03-10T01:17:56.242Z,0.00
2023-03-10T01:18:57.102Z,0.00
2023-03-10T01:19:57.990Z,0.00
2023-03-10T01:20:58.838Z,0.00
2023-03-10T01:22:00.099Z,0.00
2023-03-10T01:23:00.425Z,0.00
2023-03-10T01:24:01.318Z,0.00
2023-03-10T01:25:02.139Z,0.00
2023-03-10T01:26:02.994Z,0.00
2023-03-10T01:27:03.862Z,0.00
2023-03-10T01:28:04.718Z,0.00
2023-03-10T01:29:05.566Z,0.00
2023-03-10T01:30:06.453Z,0.00
2023-03-10T01:31:07.398Z,0.00
2023-03-10T01:32:08.688Z,0.00
2023-03-10T01:33:09.029Z,0.00
2023-03-10T01:34:09.911Z,0.00
2023-03-10T01:35:10.773Z,0.00
2023-03-10T01:36:11.660Z,0.00
2023-03-10T01:37:12.576Z,0.00
2023-03-10T01:38:13.427Z,0.00
2023-03-10T01:39:14.303Z,0.00
2023-03-10T01:40:15.138Z,0.00
2023-03-10T01:41:15.984Z,0.00
2023-03-10T01:42:17.073Z,0.00
2023-03-10T01:43:17.491Z,0.00
2023-03-10T01:44:18.340Z,0.00
2023-03-10T01:45:19.202Z,0.00
2023-03-10T01:46:20.125Z,0.00
2023-03-10T01:47:20.954Z,0.00
2023-03-10T01:48:21.810Z,0.00
2023-03-10T01:49:22.665Z,0.00
2023-03-10T01:50:23.537Z,0.00
2023-03-10T01:51:24.387Z,0.00
2023-03-10T01:52:25.574Z,0.00
2023-03-10T01:53:25.927Z,0.00
2023-03-10T01:54:26.806Z,0.00
2023-03-10T01:55:27.654Z,0.00
2023-03-10T01:56:28.512Z,0.00
2023-03-10T01:57:29.380Z,0.00
2023-03-10T01:58:30.233Z,0.00
2023-03-10T01:59:31.093Z,0.00
2023-03-10T02:00:31.985Z,0.00
2023-03-10T02:01:32.812Z,0.00
2023-03-10T02:02:34.065Z,0.00
2023-03-10T02:03:34.430Z,0.00
2023-03-10T02:04:35.300Z,0.00
2023-03-10T02:05:36.167Z,0.00
2023-03-10T02:06:37.004Z,0.00
2023-03-10T02:07:39.811Z,0.00
2023-03-10T02:08:38.536Z,0.00
2023-03-10T02:09:39.424Z,0.00
2023-03-10T02:10:40.274Z,0.00
2023-03-10T02:11:41.134Z,0.00
2023-03-10T02:12:42.075Z,0.00
2023-03-10T02:13:42.938Z,0.00
2023-03-10T02:14:43.792Z,0.00
2023-03-10T02:15:44.644Z,0.00
2023-03-10T02:16:45.590Z,0.00
2023-03-10T02:17:46.498Z,0.00
2023-03-10T02:18:47.305Z,0.00
2023-03-10T02:19:48.152Z,0.00
2023-03-10T02:20:49.031Z,0.00
2023-03-10T02:21:49.892Z,0.00
2023-03-10T02:22:50.736Z,0.00
2023-03-10T02:24:00.842Z,0.00
2023-03-10T02:24:53.363Z,0.00
2023-03-10T02:25:53.197Z,0.00
2023-03-10T02:26:54.049Z,0.00
2023-03-10T02:27:54.920Z,0.00
2023-03-10T02:28:55.778Z,0.00
2023-03-10T02:29:59.748Z,0.00
2023-03-10T02:30:57.234Z,0.00
2023-03-10T02:31:58.187Z,0.00
2023-03-10T02:32:59.073Z,0.00
2023-03-10T02:33:59.923Z,0.00
2023-03-10T02:35:00.776Z,0.00
2023-03-10T02:36:01.718Z,0.00
2023-03-10T02:37:02.521Z,0.00
2023-03-10T02:38:03.393Z,0.00
2023-03-10T02:39:04.217Z,0.00
2023-03-10T02:40:05.089Z,0.00
2023-03-10T02:41:05.932Z,0.00
2023-03-10T02:42:06.806Z,0.00
2023-03-10T02:43:07.682Z,0.00
2023-03-10T02:44:08.542Z,0.00
2023-03-10T02:45:09.388Z,0.00
2023-03-10T02:46:10.476Z,0.00
2023-03-10T02:47:10.811Z,0.00
2023-03-10T02:48:12.087Z,0.00
2023-03-10T02:49:12.431Z,0.00
2023-03-10T02:50:13.296Z,0.00
2023-03-10T02:51:14.175Z,0.00
2023-03-10T02:52:15.006Z,0.00
2023-03-10T02:53:16.069Z,0.00
2023-03-10T02:54:16.429Z,0.00
2023-03-10T02:55:17.293Z,0.00
2023-03-10T02:56:18.145Z,0.00
2023-03-10T02:57:18.986Z,0.00
2023-03-10T02:58:19.857Z,0.00
2023-03-10T02:59:20.719Z,0.00
2023-03-10T03:00:21.568Z,0.00
2023-03-10T03:01:22.559Z,0.00
2023-03-10T03:02:23.366Z,0.00
2023-03-10T03:03:24.563Z,0.00
2023-03-10T03:04:24.914Z,0.00
2023-03-10T03:05:25.789Z,0.00
2023-03-10T03:06:26.658Z,0.00
2023-03-10T03:07:27.487Z,0.00
2023-03-10T03:08:28.361Z,0.00
2023-03-10T03:09:29.236Z,0.00
2023-03-10T03:10:30.129Z,0.00
2023-03-10T03:11:30.925Z,0.00
2023-03-10T03:12:31.760Z,0.00
2023-03-10T03:13:32.644Z,0.00
2023-03-10T03:14:33.498Z,0.00
2023-03-10T03:15:34.360Z,0.00
2023-03-10T03:16:35.263Z,0.00
2023-03-10T03:17:36.062Z,0.00
2023-03-10T03:18:36.930Z,0.00
2023-03-10T03:19:37.790Z,0.00
2023-03-10T03:20:38.645Z,0.00
2023-03-10T03:21:39.517Z,0.00
2023-03-10T03:22:40.403Z,0.00
2023-03-10T03:23:41.269Z,0.00
2023-03-10T03:24:42.125Z,0.00
2023-03-10T03:25:42.991Z,0.00
2023-03-10T03:26:43.830Z,0.00
2023-03-10T03:27:44.678Z,0.00
2023-03-10T03:28:45.552Z,0.00
2023-03-10T03:29:46.396Z,0.00
2023-03-10T03:30:47.247Z,0.00
2023-03-10T03:31:48.173Z,0.00
2023-03-10T03:32:49.142Z,0.00
2023-03-10T03:33:49.974Z,0.00
2023-03-10T03:34:50.816Z,0.00
2023-03-10T03:35:51.748Z,0.00
2023-03-10T03:36:52.558Z,0.00
2023-03-10T03:37:53.389Z,0.00
2023-03-10T03:38:54.262Z,0.00
2023-03-10T03:39:55.173Z,0.00
2023-03-10T03:40:55.982Z,0.00
2023-03-10T03:41:56.778Z,0.00
2023-03-10T03:42:57.629Z,0.00
2023-03-10T03:43:58.558Z,0.00
2023-03-10T03:44:59.411Z,0.00
2023-03-10T03:46:00.336Z,0.00
2023-03-10T03:47:01.138Z,0.00
2023-03-10T03:48:01.984Z,0.00
2023-03-10T03:49:02.853Z,0.00
2023-03-10T03:50:03.728Z,0.00
2023-03-10T03:51:04.584Z,0.00
2023-03-10T03:52:05.464Z,0.00
2023-03-10T03:53:06.298Z,0.00
2023-03-10T03:54:07.179Z,0.00
2023-03-10T03:55:08.026Z,0.00
2023-03-10T03:56:08.899Z,0.00
2023-03-10T03:57:09.721Z,0.00
2023-03-10T03:58:10.575Z,0.00
2023-03-10T03:59:11.557Z,0.00
2023-03-10T04:00:12.418Z,0.00
2023-03-10T04:01:13.262Z,0.00
2023-03-10T04:02:14.204Z,0.00
2023-03-10T04:03:15.016Z,0.00
2023-03-10T04:04:15.868Z,0.00
2023-03-10T04:05:16.726Z,0.00
2023-03-10T04:06:17.784Z,0.00
2023-03-10T04:07:18.185Z,0.00
2023-03-10T04:08:18.987Z,0.00
2023-03-10T04:09:20.052Z,0.00
2023-03-10T04:10:20.405Z,0.00
2023-03-10T04:11:21.284Z,0.00
2023-03-10T04:12:22.082Z,0.00
2023-03-10T04:13:22.933Z,0.00
2023-03-10T04:14:24.065Z,0.00
2023-03-10T04:15:24.420Z,0.00
2023-03-10T04:16:25.289Z,0.00
2023-03-10T04:17:26.158Z,0.00
2023-03-10T04:18:27.001Z,0.00
2023-03-10T04:19:28.053Z,0.00
2023-03-10T04:20:28.424Z,0.00
2023-03-10T04:21:29.271Z,0.00
2023-03-10T04:22:30.151Z,0.00
2023-03-10T04:23:30.984Z,0.00
2023-03-10T04:24:31.852Z,0.00
2023-03-10T04:25:32.704Z,0.00
2023-03-10T04:26:33.575Z,0.00
2023-03-10T04:27:34.380Z,0.00
2023-03-10T04:28:35.230Z,0.00
2023-03-10T04:29:36.559Z,0.00
2023-03-10T04:30:36.910Z,0.00
2023-03-10T04:31:37.853Z,0.00
2023-03-10T04:32:38.771Z,0.00
2023-03-10T04:33:39.626Z,0.00
2023-03-10T04:34:40.556Z,0.00
2023-03-10T04:35:41.529Z,0.00
2023-03-10T04:36:42.311Z,0.00
2023-03-10T04:37:43.184Z,0.00
2023-03-10T04:38:44.016Z,0.00
2023-03-10T04:39:45.052Z,0.00
2023-03-10T04:40:45.441Z,0.00
2023-03-10T04:41:46.303Z,0.00
2023-03-10T04:42:47.154Z,0.00
2023-03-10T04:43:48.221Z,0.00
2023-03-10T04:44:48.568Z,0.00
2023-03-10T04:45:49.465Z,0.00
2023-03-10T04:46:50.291Z,0.00
2023-03-10T04:47:51.160Z,0.00
2023-03-10T04:48:52.071Z,0.00
2023-03-10T04:49:52.872Z,0.00
2023-03-10T04:50:53.722Z,0.00
2023-03-10T04:51:54.582Z,0.00
2023-03-10T04:52:55.456Z,0.00
2023-03-10T04:53:56.299Z,0.00
2023-03-10T04:54:57.550Z,0.00
2023-03-10T04:55:57.908Z,0.00
2023-03-10T04:56:58.783Z,0.00
2023-03-10T04:57:59.588Z,0.00
2023-03-10T04:59:00.431Z,0.00
2023-03-10T05:00:03.133Z,0.00
2023-03-10T05:01:03.608Z,0.00
2023-03-10T05:02:02.651Z,0.00
2023-03-10T05:03:03.489Z,0.00
2023-03-10T05:04:04.513Z,0.00
2023-03-10T05:05:04.874Z,0.00
2023-03-10T05:06:05.723Z,0.00
2023-03-10T05:07:06.574Z,0.00
2023-03-10T05:08:07.450Z,0.00
2023-03-10T05:09:08.288Z,0.00
2023-03-10T05:10:09.548Z,0.00
2023-03-10T05:11:09.905Z,0.00
2023-03-10T05:12:10.792Z,0.00
2023-03-10T05:13:11.627Z,0.00
2023-03-10T05:14:12.480Z,0.00
2023-03-10T05:15:13.559Z,0.00
2023-03-10T05:16:14.014Z,0.00
2023-03-10T05:17:14.855Z,0.00
2023-03-10T05:18:15.699Z,0.00
2023-03-10T05:19:16.546Z,0.00
2023-03-10T05:20:17.413Z,0.00
2023-03-10T05:21:18.273Z,0.00
2023-03-10T05:22:19.122Z,0.00
2023-03-10T05:23:19.997Z,0.00
2023-03-10T05:24:20.837Z,0.00
2023-03-10T05:25:21.701Z,0.00
2023-03-10T05:26:22.563Z,0.00
2023-03-10T05:27:23.439Z,0.00
2023-03-10T05:28:24.283Z,4.00
2023-03-10T05:29:25.175Z,4.00
2023-03-10T05:30:26.046Z,4.00
2023-03-10T05:31:27.112Z,4.00
2023-03-10T05:32:27.532Z,4.00
2023-03-10T05:33:31.210Z,4.00
2023-03-10T05:34:29.203Z,4.00
2023-03-10T05:35:30.099Z,4.00
2023-03-10T05:36:30.928Z,4.00
2023-03-10T05:37:31.786Z,4.00
2023-03-10T05:38:32.657Z,8.00
2023-03-10T05:39:33.490Z,8.00
2023-03-10T05:40:34.564Z,8.00
2023-03-10T05:41:34.897Z,12.00
2023-03-10T05:42:35.783Z,16.00
2023-03-10T05:43:36.645Z,16.00
2023-03-10T05:44:37.480Z,16.00
2023-03-10T05:45:38.348Z,20.00
2023-03-10T05:46:39.306Z,24.00
2023-03-10T05:47:40.086Z,28.00
2023-03-10T05:48:40.941Z,32.00
2023-03-10T05:49:41.832Z,36.00
2023-03-10T05:50:42.709Z,40.00
2023-03-10T05:51:43.553Z,48.00
2023-03-10T05:52:44.384Z,56.00
2023-03-10T05:53:45.256Z,64.00
2023-03-10T05:54:46.093Z,68.00
2023-03-10T05:55:46.977Z,72.00
2023-03-10T05:56:47.820Z,76.00
2023-03-10T05:57:48.712Z,80.00
2023-03-10T05:58:49.551Z,88.00
2023-03-10T05:59:50.394Z,100.00
2023-03-10T06:00:51.265Z,112.00
2023-03-10T06:01:52.145Z,120.00
2023-03-10T06:02:53.138Z,116.00
2023-03-10T06:03:53.588Z,116.00
2023-03-10T06:04:54.408Z,124.00
2023-03-10T06:05:55.280Z,144.00
2023-03-10T06:06:56.205Z,156.00
2023-03-10T06:07:57.003Z,176.00
2023-03-10T06:08:57.954Z,204.00
2023-03-10T06:09:58.735Z,228.00
2023-03-10T06:10:59.613Z,256.00
2023-03-10T06:12:00.460Z,284.00
2023-03-10T06:13:01.351Z,332.00
2023-03-10T06:14:02.129Z,396.00
2023-03-10T06:15:02.981Z,468.00
2023-03-10T06:16:03.884Z,528.00
2023-03-10T06:17:04.709Z,564.00
2023-03-10T06:18:05.568Z,612.00
2023-03-10T06:19:06.423Z,676.00
2023-03-10T06:20:07.283Z,736.00
2023-03-10T06:21:08.155Z,768.00
2023-03-10T06:22:09.026Z,784.00
2023-03-10T06:23:09.877Z,788.00
2023-03-10T06:24:10.774Z,804.00
2023-03-10T06:25:11.589Z,860.00
2023-03-10T06:26:12.459Z,948.00
2023-03-10T06:27:13.320Z,1108.00
2023-03-10T06:28:14.191Z,2324.00
2023-03-10T06:29:15.046Z,1840.00
2023-03-10T06:30:15.894Z,2652.00
2023-03-10T06:31:16.859Z,1236.00
2023-03-10T06:32:17.722Z,1264.00
2023-03-10T06:33:18.545Z,1392.00
2023-03-10T06:34:19.398Z,1484.00
2023-03-10T06:35:20.248Z,1260.00
2023-03-10T06:36:21.146Z,1264.00
2023-03-10T06:37:21.970Z,1356.00
2023-03-10T06:38:22.825Z,1520.00
2023-03-10T06:39:25.987Z,3364.00
2023-03-10T06:40:24.674Z,1976.00
2023-03-10T06:41:25.547Z,2120.00
2023-03-10T06:42:26.410Z,1696.00
2023-03-10T06:43:27.280Z,1616.00
2023-03-10T06:44:28.123Z,1540.00
2023-03-10T06:45:28.980Z,1536.00
2023-03-10T06:46:30.062Z,1584.00
2023-03-10T06:47:30.398Z,1608.00
2023-03-10T06:48:31.280Z,1672.00
2023-03-10T06:49:32.137Z,1752.00
2023-03-10T06:50:32.993Z,1780.00
2023-03-10T06:51:33.864Z,1800.00
2023-03-10T06:52:34.734Z,1796.00
2023-03-10T06:53:35.580Z,1784.00
2023-03-10T06:54:36.506Z,1764.00
2023-03-10T06:55:37.304Z,1684.00
2023-03-10T06:56:38.200Z,1588.00
2023-03-10T06:57:39.032Z,1520.00
2023-03-10T06:58:39.903Z,1504.00
2023-03-10T06:59:40.739Z,1556.00
2023-03-10T07:00:41.603Z,1700.00
2023-03-10T07:01:42.548Z,1920.00
2023-03-10T07:02:43.399Z,2140.00
2023-03-10T07:03:44.252Z,2296.00
2023-03-10T07:04:45.172Z,2284.00
2023-03-10T07:05:46.008Z,2164.00
2023-03-10T07:06:47.043Z,2128.00
2023-03-10T07:07:47.388Z,2112.00
2023-03-10T07:08:48.254Z,2148.00
2023-03-10T07:09:49.125Z,2224.00
2023-03-10T07:10:51.693Z,2376.00
2023-03-10T07:11:50.644Z,2492.00
2023-03-10T07:12:51.501Z,2480.00
2023-03-10T07:13:52.375Z,2424.00
2023-03-10T07:14:53.192Z,2316.00
2023-03-10T07:15:54.045Z,2100.00
2023-03-10T07:16:55.039Z,1880.00
2023-03-10T07:17:55.863Z,1596.00
2023-03-10T07:18:56.710Z,1268.00
2023-03-10T07:19:57.559Z,1028.00
2023-03-10T07:20:58.419Z,940.00
2023-03-10T07:21:59.037Z,908.00
2023-03-10T07:22:59.894Z,932.00
2023-03-10T07:24:00.764Z,1056.00
2023-03-10T07:25:01.739Z,1260.00
2023-03-10T07:26:02.576Z,1564.00
2023-03-10T07:27:03.446Z,1832.00
2023-03-10T07:28:04.290Z,1872.00
2023-03-10T07:29:05.166Z,1844.00
2023-03-10T07:30:05.999Z,1876.00
2023-03-10T07:31:06.926Z,2068.00
2023-03-10T07:32:07.752Z,2304.00
2023-03-10T07:33:08.611Z,2132.00
2023-03-10T07:34:09.471Z,1944.00
2023-03-10T07:35:10.346Z,2084.00
2023-03-10T07:36:11.220Z,1932.00
2023-03-10T07:37:12.067Z,1736.00
2023-03-10T07:38:12.921Z,1724.00
2023-03-10T07:39:13.773Z,1656.00
2023-03-10T07:40:14.793Z,1640.00
2023-03-10T07:41:15.573Z,1792.00
2023-03-10T07:42:16.548Z,2068.00
2023-03-10T07:43:17.396Z,2164.00
2023-03-10T07:44:18.063Z,2112.00
2023-03-10T07:45:18.857Z,2160.00
2023-03-10T07:46:19.788Z,2312.00
2023-03-10T07:47:20.596Z,2500.00
2023-03-10T07:48:21.452Z,2704.00
2023-03-10T07:49:22.463Z,2952.00
2023-03-10T07:50:23.242Z,3300.00
2023-03-10T07:51:24.105Z,3616.00
2023-03-10T07:52:25.048Z,3552.00
2023-03-10T07:53:25.894Z,3336.00
2023-03-10T07:54:26.748Z,3236.00
2023-03-10T07:55:27.671Z,3360.00
2023-03-10T07:56:28.465Z,3676.00
2023-03-10T07:57:29.537Z,4012.00
2023-03-10T07:58:29.903Z,4640.00
2023-03-10T07:59:30.757Z,5396.00
2023-03-10T08:00:31.575Z,6068.00
2023-03-10T08:01:32.436Z,6564.00
2023-03-10T08:02:33.304Z,7072.00
2023-03-10T08:03:34.311Z,6960.00
2023-03-10T08:04:35.862Z,5920.00
2023-03-10T08:05:35.842Z,4704.00
2023-03-10T08:06:36.790Z,3868.00
2023-03-10T08:07:38.235Z,3508.00
2023-03-10T08:08:38.560Z,3404.00
2023-03-10T08:09:39.424Z,3196.00
2023-03-10T08:10:40.451Z,2976.00
2023-03-10T08:11:41.228Z,3084.00
2023-03-10T08:12:42.094Z,3488.00
2023-03-10T08:13:42.947Z,3892.00
2023-03-10T08:14:43.858Z,4368.00
2023-03-10T08:15:44.787Z,4892.00
2023-03-10T08:16:45.591Z,5140.00
2023-03-10T08:17:46.543Z,5224.00
2023-03-10T08:18:47.397Z,5248.00
2023-03-10T08:19:48.274Z,5316.00
2023-03-10T08:20:49.128Z,5316.00
2023-03-10T08:21:49.996Z,5472.00
2023-03-10T08:22:51.035Z,6008.00
2023-03-10T08:23:51.389Z,6860.00
2023-03-10T08:24:52.239Z,7936.00
2023-03-10T08:25:53.111Z,8736.00
2023-03-10T08:26:53.945Z,9512.00
2023-03-10T08:27:55.030Z,8064.00
2023-03-10T08:28:55.392Z,6432.00
2023-03-10T08:29:56.259Z,5872.00
2023-03-10T08:31:05.042Z,6236.00
2023-03-10T08:31:58.945Z,6680.00
2023-03-10T08:32:58.982Z,6532.00
2023-03-10T08:33:59.293Z,5948.00
2023-03-10T08:35:00.185Z,6484.00
2023-03-10T08:36:01.061Z,6752.00
2023-03-10T08:37:01.867Z,6852.00
2023-03-10T08:38:02.731Z,6988.00
2023-03-10T08:39:03.594Z,7212.00
2023-03-10T08:40:04.450Z,7252.00
2023-03-10T08:41:05.319Z,7640.00
2023-03-10T08:42:06.166Z,9452.00
2023-03-10T08:43:07.019Z,10148.00
2023-03-10T08:44:07.869Z,11200.00
2023-03-10T08:45:09.076Z,10548.00
2023-03-10T08:46:09.387Z,9908.00
2023-03-10T08:47:10.312Z,10548.00
2023-03-10T08:48:11.532Z,10144.00
2023-03-10T08:49:11.889Z,10560.00
2023-03-10T08:50:12.762Z,10360.00
2023-03-10T08:51:15.720Z,10188.00
2023-03-10T08:52:14.338Z,10508.00
2023-03-10T08:53:15.213Z,10644.00
2023-03-10T08:54:16.074Z,10468.00
2023-03-10T08:55:16.925Z,10500.00
2023-03-10T08:56:17.808Z,11140.00
2023-03-10T08:57:18.638Z,12220.00
2023-03-10T08:58:19.498Z,13600.00
2023-03-10T08:59:20.368Z,16256.00
2023-03-10T09:00:21.234Z,26240.00
2023-03-10T09:01:22.054Z,24320.00
2023-03-10T09:02:22.996Z,24608.00
2023-03-10T09:03:24.061Z,16736.00
2023-03-10T09:04:24.444Z,17344.00
2023-03-10T09:05:25.303Z,13812.00
2023-03-10T09:06:26.156Z,12212.00
2023-03-10T09:07:27.056Z,9740.00
2023-03-10T09:08:28.004Z,8696.00
2023-03-10T09:09:28.786Z,7796.00
2023-03-10T09:10:29.644Z,8608.00
2023-03-10T09:11:30.532Z,9844.00
2023-03-10T09:12:36.129Z,12224.00
2023-03-10T09:13:33.547Z,32512.00
2023-03-10T09:14:32.888Z,22048.00
2023-03-10T09:15:33.789Z,18112.00
2023-03-10T09:16:34.730Z,11880.00
2023-03-10T09:17:35.595Z,9504.00
2023-03-10T09:18:36.554Z,8280.00
2023-03-10T09:19:37.396Z,7404.00
2023-03-10T09:20:38.251Z,6720.00
2023-03-10T09:21:39.102Z,6360.00
2023-03-10T09:22:39.956Z,6488.00
2023-03-10T09:23:40.831Z,6680.00
2023-03-10T09:24:41.675Z,7416.00
2023-03-10T09:25:42.530Z,8316.00
2023-03-10T09:26:44.768Z,7480.00
2023-03-10T09:27:46.638Z,6036.00
2023-03-10T09:28:45.527Z,5404.00
2023-03-10T09:30:46.667Z,5392.00
2023-03-10T09:31:47.594Z,5444.00
2023-03-10T09:32:48.451Z,5604.00
2023-03-10T09:33:49.530Z,5500.00
2023-03-10T09:34:49.898Z,5512.00
2023-03-10T09:36:05.941Z,5756.00
2023-03-10T09:36:52.522Z,6048.00
2023-03-10T09:37:52.359Z,6292.00
2023-03-10T09:38:53.229Z,6468.00
2023-03-10T09:39:54.083Z,6820.00
2023-03-10T09:40:54.938Z,7348.00
2023-03-10T09:41:55.833Z,7552.00
2023-03-10T09:42:56.653Z,7500.00
2023-03-10T09:43:57.533Z,7824.00
2023-03-10T09:44:58.394Z,9892.00
2023-03-10T09:45:59.319Z,18688.00
2023-03-10T09:47:00.141Z,14916.00
2023-03-10T09:48:02.161Z,13392.00
2023-03-10T09:49:02.032Z,15260.00
2023-03-10T09:50:02.879Z,14172.00
2023-03-10T09:51:03.733Z,12436.00
2023-03-10T09:52:04.631Z,12192.00
2023-03-10T09:53:05.463Z,12160.00
2023-03-10T09:54:06.373Z,11608.00
2023-03-10T09:55:07.192Z,10656.00
2023-03-10T09:56:08.048Z,9708.00
2023-03-10T09:57:08.917Z,8900.00
2023-03-10T09:58:09.750Z,8452.00
2023-03-10T09:59:10.615Z,8264.00
2023-03-10T10:00:11.474Z,8760.00
2023-03-10T10:01:12.347Z,9932.00
2023-03-10T10:02:13.137Z,16004.00
2023-03-10T10:03:14.048Z,18112.00
2023-03-10T10:04:15.007Z,36448.00
2023-03-10T10:05:17.221Z,14172.00
2023-03-10T10:06:16.687Z,12984.00
2023-03-10T10:07:17.547Z,15012.00
2023-03-10T10:08:18.386Z,20672.00
2023-03-10T10:09:19.258Z,10764.00
2023-03-10T10:10:20.117Z,7384.00
2023-03-10T10:11:20.976Z,7752.00
2023-03-10T10:12:21.853Z,8364.00
2023-03-10T10:13:22.702Z,8612.00
2023-03-10T10:14:29.925Z,9084.00
2023-03-10T10:15:25.353Z,8504.00
2023-03-10T10:16:34.299Z,7476.00
2023-03-10T10:17:26.988Z,7664.00
2023-03-10T10:18:27.066Z,8376.00
2023-03-10T10:19:27.439Z,8496.00
2023-03-10T10:20:28.289Z,8012.00
2023-03-10T10:21:40.310Z,7956.00
2023-03-10T10:22:30.913Z,8516.00
2023-03-10T10:23:30.774Z,10912.00
2023-03-10T10:24:32.030Z,12768.00
2023-03-10T10:25:32.384Z,14492.00
2023-03-10T10:26:33.238Z,18784.00
2023-03-10T10:27:34.109Z,21920.00
2023-03-10T10:28:34.952Z,33664.00
2023-03-10T10:29:36.033Z,23424.00
2023-03-10T10:30:36.517Z,61408.00
2023-03-10T10:31:37.384Z,30272.00
2023-03-10T10:32:38.238Z,69152.00
2023-03-10T10:33:39.119Z,38720.00
2023-03-10T10:34:40.555Z,59680.00
2023-03-10T10:35:40.961Z,74432.00
2023-03-10T10:36:41.777Z,57536.00
2023-03-10T10:37:42.637Z,77792.00
2023-03-10T10:38:43.485Z,80320.00
2023-03-10T10:39:44.357Z,15608.00
2023-03-10T10:40:45.222Z,12952.00
2023-03-10T10:41:46.077Z,14216.00
2023-03-10T10:42:46.944Z,15872.00
2023-03-10T10:43:47.798Z,16864.00
2023-03-10T10:44:48.664Z,15376.00
2023-03-10T10:45:49.550Z,14456.00
2023-03-10T10:46:50.382Z,15704.00
2023-03-10T10:47:51.204Z,14960.00
2023-03-10T10:48:52.056Z,16800.00
2023-03-10T10:49:53.035Z,17248.00
2023-03-10T10:50:53.886Z,22880.00
2023-03-10T10:51:55.637Z,29312.00
2023-03-10T10:52:55.467Z,44064.00
2023-03-10T10:53:56.319Z,17952.00
2023-03-10T10:54:57.188Z,13808.00
2023-03-10T10:55:58.039Z,12804.00
2023-03-10T10:56:58.890Z,11840.00
2023-03-10T10:58:01.418Z,11596.00
2023-03-10T10:59:00.625Z,13724.00
2023-03-10T11:00:01.583Z,22272.00
2023-03-10T11:01:02.518Z,20704.00
2023-03-10T11:02:03.504Z,15636.00
2023-03-10T11:03:03.854Z,16192.00
2023-03-10T11:04:04.709Z,26400.00
2023-03-10T11:05:05.591Z,18272.00
2023-03-10T11:06:06.458Z,15540.00
2023-03-10T11:07:07.285Z,17088.00
2023-03-10T11:08:08.140Z,20672.00
2023-03-10T11:09:09.341Z,29408.00
2023-03-10T11:10:10.036Z,27744.00
2023-03-10T11:11:10.385Z,35360.00
2023-03-10T11:12:11.237Z,36288.00
2023-03-10T11:13:12.120Z,45504.00
2023-03-10T11:14:12.944Z,45984.00
2023-03-10T11:15:14.032Z,40480.00
2023-03-10T11:16:14.521Z,36224.00
2023-03-10T11:17:15.373Z,35936.00
2023-03-10T11:18:16.178Z,65824.00
2023-03-10T11:19:17.026Z,37856.00
2023-03-10T11:20:17.908Z,26848.00
2023-03-10T11:21:18.756Z,27872.00
2023-03-10T11:22:19.609Z,32608.00
2023-03-10T11:23:20.464Z,38560.00
2023-03-10T11:24:21.321Z,34528.00
2023-03-10T11:25:22.536Z,16448.00
2023-03-10T11:26:22.888Z,12888.00
2023-03-10T11:27:23.742Z,11916.00
2023-03-10T11:28:24.618Z,11472.00
2023-03-10T11:29:25.634Z,11512.00
2023-03-10T11:30:26.118Z,10568.00
2023-03-10T11:31:27.015Z,10476.00
2023-03-10T11:32:28.011Z,11252.00
2023-03-10T11:33:28.817Z,10244.00
2023-03-10T11:34:29.669Z,9752.00
2023-03-10T11:35:30.532Z,9460.00
2023-03-10T11:36:31.398Z,9540.00
2023-03-10T11:37:32.244Z,10432.00
2023-03-10T11:38:33.096Z,9236.00
2023-03-10T11:39:33.955Z,8728.00
2023-03-10T11:40:34.827Z,8500.00
2023-03-10T11:41:35.673Z,9036.00
2023-03-10T11:42:36.531Z,14868.00
2023-03-10T11:43:37.403Z,9596.00
2023-03-10T11:44:38.234Z,9280.00
2023-03-10T11:45:39.111Z,9468.00
2023-03-10T11:46:40.059Z,10048.00
2023-03-10T11:47:42.064Z,10180.00
2023-03-10T11:48:41.468Z,10128.00
2023-03-10T11:49:42.309Z,12300.00
2023-03-10T11:50:43.179Z,12548.00
2023-03-10T11:51:44.035Z,11148.00
2023-03-10T11:52:44.902Z,16704.00
2023-03-10T11:53:45.752Z,15156.00
2023-03-10T11:54:46.610Z,13940.00
2023-03-10T11:55:47.474Z,10460.00
2023-03-10T11:56:48.379Z,9276.00
2023-03-10T11:57:49.225Z,8108.00
2023-03-10T11:58:50.107Z,7072.00
2023-03-10T11:59:50.934Z,6188.00
2023-03-10T12:00:52.031Z,5580.00
2023-03-10T12:01:52.430Z,5188.00
2023-03-10T12:02:53.265Z,4584.00
2023-03-10T12:03:54.147Z,3796.00
2023-03-10T12:04:54.935Z,3168.00
2023-03-10T12:05:56.138Z,2716.00
2023-03-10T12:06:56.475Z,2300.00
2023-03-10T12:07:57.319Z,1940.00
2023-03-10T12:08:58.190Z,1756.00
2023-03-10T12:09:59.045Z,1840.00
2023-03-10T12:11:00.033Z,2236.00
2023-03-10T12:12:00.890Z,2752.00
2023-03-10T12:13:01.739Z,3140.00
2023-03-10T12:14:02.610Z,3332.00
2023-03-10T12:15:03.441Z,3360.00
2023-03-10T12:16:04.332Z,3268.00
2023-03-10T12:17:05.170Z,3124.00
2023-03-10T12:18:06.031Z,3004.00
2023-03-10T12:19:06.872Z,2952.00
2023-03-10T12:20:07.723Z,2992.00
2023-03-10T12:21:09.067Z,3108.00
2023-03-10T12:22:09.399Z,3296.00
2023-03-10T12:23:10.255Z,3580.00
2023-03-10T12:24:12.527Z,3888.00
2023-03-10T12:25:12.064Z,3968.00
2023-03-10T12:26:13.050Z,3620.00
2023-03-10T12:27:13.906Z,3064.00
2023-03-10T12:28:14.760Z,2640.00
2023-03-10T12:29:15.651Z,2644.00
2023-03-10T12:30:16.496Z,2896.00
2023-03-10T12:31:17.640Z,3188.00
2023-03-10T12:32:18.034Z,3444.00
2023-03-10T12:33:18.946Z,3648.00
2023-03-10T12:34:19.759Z,3820.00
2023-03-10T12:35:20.608Z,3908.00
2023-03-10T12:36:21.533Z,3936.00
2023-03-10T12:37:22.348Z,3936.00
2023-03-10T12:38:23.203Z,3984.00
2023-03-10T12:39:24.055Z,4004.00
2023-03-10T12:40:24.906Z,3908.00
2023-03-10T12:41:25.785Z,3704.00
2023-03-10T12:42:26.649Z,3372.00
2023-03-10T12:43:27.504Z,3008.00
2023-03-10T12:44:28.373Z,2764.00
2023-03-10T12:45:29.230Z,2588.00
2023-03-10T12:46:30.210Z,2516.00